Latest Weather Observations for Jandakot

IDW60801

Issued at 7:32 pm WST Tuesday 9 February 2016 (issued every 30 minutes, with the page automatically refreshed every 10 minutes)

About weather observations | Map of weather stations | Latest weather observations for WA | Other Formats
Station Details ID: 009172 Name: JANDAKOT AERO Lat: -32.10 Lon: 115.88 Height: 30.0 m
Data from the previous 72 hours. | See also: Recent months at Jandakot
Date/Time
WST
Temp
°C
App
Temp
°C
Dew
Point
Rel
Hum
%
Delta-T
°C
Wind Press
QNH
hPa
Press
MSL
hPa
Rain
since 9 am
mm
Dir
 
Spd
km/h
Gust
km/h
Spd
kts
Gust
kts
09/07:30pm 30.9 27.8 5.5 20 13.4 SW 11 15 6 8 1013.1 1012.9 0.0
09/07:00pm 33.0 29.2 4.1 16 15.1 SSW 13 17 7 9 1013.0 1012.8 0.0
09/06:30pm 34.6 31.2 6.1 17 15.5 SW 13 17 7 9 1012.9 1012.7 0.0
09/06:00pm 34.8 30.7 6.2 17 15.6 SW 17 20 9 11 1012.8 1012.6 0.0
09/05:30pm 35.3 30.5 4.8 15 16.3 WSW 19 20 10 11 1012.9 1012.7 0.0
09/05:00pm 36.8 32.2 6.7 15 16.7 WSW 20 26 11 14 1012.7 1012.5 0.0
09/04:30pm 38.8 33.5 2.9 11 19.0 W 20 30 11 16 1012.5 1012.3 0.0
09/04:00pm 39.3 33.4 3.8 11 19.1 W 24 32 13 17 1012.6 1012.4 0.0
09/03:30pm 38.7 31.8 2.6 10 19.0 WSW 28 33 15 18 1012.7 1012.5 0.0
09/03:00pm 39.2 33.1 2.7 10 19.3 WSW 24 32 13 17 1012.8 1012.6 0.0
09/02:30pm 39.7 33.8 1.4 9 19.9 W 22 28 12 15 1013.0 1012.8 0.0
09/02:00pm 40.0 34.7 3.1 10 19.7 WSW 20 30 11 16 1013.2 1013.0 0.0
09/01:30pm 39.9 34.7 3.7 11 19.5 WSW 20 26 11 14 1013.4 1013.2 0.0
09/01:00pm 40.4 36.1 5.3 12 19.4 W 17 22 9 12 1013.5 1013.3 0.0
09/12:30pm 39.1 35.4 8.0 15 17.8 W 17 26 9 14 1013.9 1013.7 0.0
09/12:00pm 39.7 35.5 5.5 12 18.9 W 17 22 9 12 1014.1 1013.9 0.0
09/11:30am 39.1 36.8 5.9 13 18.4 NW 7 13 4 7 1014.4 1014.2 0.0
09/11:00am 38.9 34.2 3.1 11 19.0 N 17 24 9 13 1014.8 1014.6 0.0
09/10:30am 37.9 32.2 2.6 11 18.5 NNE 22 30 12 16 1014.9 1014.7 0.0
09/10:00am 36.6 30.6 3.3 12 17.5 NNE 24 30 13 16 1015.2 1015.0 0.0
09/09:30am 35.6 29.4 2.0 12 17.2 NNE 24 32 13 17 1015.1 1014.9 0.0
09/09:00am 34.4 28.9 1.9 13 16.5 NNE 20 28 11 15 1015.3 1015.1 0.0
09/08:30am 32.9 29.0 3.4 15 15.2 NE 13 17 7 9 1015.4 1015.3 0.0
09/08:00am 31.0 27.3 4.3 18 13.8 NE 13 15 7 8 1015.4 1015.3 0.0
09/07:30am 28.7 25.7 6.1 24 11.9 ENE 11 15 6 8 1015.2 1015.0 0.0
09/07:00am 25.4 23.1 7.4 31 9.5 E 9 11 5 6 1015.1 1014.9 0.0
09/06:30am 22.8 22.2 7.2 36 8.1 CALM 0 4 0 2 1014.8 1014.6 0.0
09/06:00am 21.8 19.0 7.0 38 7.6 ENE 11 13 6 7 1014.1 1013.9 0.0
09/05:30am 19.6 15.3 5.3 39 7.0 E 17 19 9 10 1013.6 1013.4 0.0
09/05:00am 18.7 16.4 7.5 48 5.7 ENE 9 9 5 5 1013.7 1013.5 0.0
09/04:30am 19.8 17.9 7.7 45 6.2 ESE 7 7 4 4 1013.4 1013.2 0.0
09/04:00am 21.7 19.5 6.3 36 7.8 E 7 7 4 4 1013.2 1013.0 0.0
09/03:30am 23.5 21.6 6.9 34 8.6 ESE 6 7 3 4 1013.1 1012.9 0.0
09/03:00am 24.4 21.8 6.1 30 9.4 ESE 9 11 5 6 1013.1 1012.9 0.0
09/02:30am 24.4 21.4 5.8 30 9.5 ESE 11 15 6 8 1013.0 1012.8 0.0
09/02:00am 26.0 21.9 4.6 25 10.8 ESE 15 19 8 10 1013.1 1012.9 0.0
09/01:30am 24.6 22.1 6.7 31 9.3 SE 9 15 5 8 1013.4 1013.2 0.0
09/01:00am 22.0 20.5 8.6 42 7.1 ESE 6 7 3 4 1013.6 1013.4 0.0
09/12:30am 21.8 20.1 8.3 42 7.1 SSE 7 9 4 5 1014.0 1013.8 0.0
09/12:00am 23.3 21.9 9.5 41 7.5 SSE 7 9 4 5 1014.3 1014.1 0.0
 
Date/Time
WST
Temp
°C
App
Temp
°C
Dew
Point
Rel
Hum
%
Delta-T
°C
Wind Press
QNH
hPa
Press
MSL
hPa
Rain
since 9 am
mm
Dir
 
Spd
km/h
Gust
km/h
Spd
kts
Gust
kts
08/11:30pm 24.2 22.7 9.3 38 8.1 SE 7 9 4 5 1014.5 1014.3 0.0
08/11:00pm 24.8 23.2 8.1 34 8.9 SE 6 7 3 4 1014.6 1014.4 0.0
08/10:30pm 25.5 23.8 8.4 33 9.2 SSE 7 9 4 5 1014.6 1014.4 0.0
08/10:00pm 27.6 25.6 8.8 30 10.3 SSE 9 13 5 7 1014.7 1014.5 0.0
08/09:30pm 29.7 26.9 7.0 24 12.2 S 11 13 6 7 1014.6 1014.4 0.0
08/09:00pm 31.0 28.4 7.6 23 12.8 SSE 11 13 6 7 1014.4 1014.2 0.0
08/08:30pm 32.3 29.4 6.7 20 13.9 S 11 13 6 7 1014.1 1013.9 0.0
08/08:00pm 33.3 30.3 6.1 18 14.7 S 11 15 6 8 1013.7 1013.5 0.0
08/07:30pm 34.9 30.8 4.3 15 16.2 S 15 17 8 9 1013.5 1013.3 0.0
08/07:00pm 36.9 32.0 2.1 11 18.0 SSW 17 22 9 12 1012.9 1012.7 0.0
08/06:30pm 38.1 32.7 1.4 10 18.9 SSW 19 26 10 14 1012.7 1012.5 0.0
08/06:00pm 39.3 33.3 0.8 9 19.8 SW 22 28 12 15 1012.3 1012.1 0.0
08/05:30pm 40.3 33.5 -1.6 7 20.9 SW 24 33 13 18 1012.1 1011.9 0.0
08/05:00pm 40.6 32.9 -2.8 6 21.3 SW 28 33 15 18 1012.1 1011.9 0.0
08/04:30pm 41.5 34.3 -1.9 6 21.7 W 26 35 14 19 1012.0 1011.8 0.0
08/04:00pm 41.2 36.9 0.8 8 21.0 SW 13 19 7 10 1012.3 1012.1 0.0
08/03:30pm 41.5 37.2 -1.9 6 21.7 SW 11 19 6 10 1012.6 1012.4 0.0
08/03:00pm 41.3 35.9 -1.0 7 21.4 WSW 17 32 9 17 1013.0 1012.8 0.0
08/02:30pm 41.4 38.4 4.0 10 20.4 W 9 13 5 7 1013.4 1013.2 0.0
08/02:00pm 41.3 37.4 1.0 8 21.0 N 11 22 6 12 1013.7 1013.5 0.0
08/01:30pm 40.8 37.4 1.9 9 20.5 NNE 9 15 5 8 1014.0 1013.8 0.0
08/01:00pm 41.1 36.8 3.1 9 20.4 NE 15 26 8 14 1014.5 1014.3 0.0
08/12:30pm 39.8 34.4 1.2 9 20.0 NE 19 30 10 16 1014.8 1014.6 0.0
08/12:00pm 39.6 35.1 4.1 11 19.2 ENE 17 32 9 17 1015.1 1014.9 0.0
08/11:30am 39.1 33.2 1.9 10 19.4 NE 22 37 12 20 1015.5 1015.4 0.0
08/11:00am 38.5 31.4 1.6 10 19.1 NE 28 41 15 22 1015.8 1015.7 0.0
08/10:30am 37.9 30.8 1.2 10 18.8 NE 28 41 15 22 1016.0 1015.9 0.0
08/10:00am 36.8 30.0 3.0 12 17.7 NE 28 39 15 21 1016.3 1016.2 0.0
08/09:30am 34.9 28.4 2.7 13 16.6 NE 26 35 14 19 1016.4 1016.3 0.0
08/09:00am 33.2 25.9 2.6 14 15.6 NE 30 37 16 20 1016.5 1016.4 0.0
08/08:30am 31.9 25.1 3.0 16 14.7 NE 28 35 15 19 1016.5 1016.4 0.0
08/08:00am 30.8 24.7 2.8 17 14.1 NE 24 35 13 19 1016.4 1016.3 0.0
08/07:30am 30.1 24.2 3.8 18 13.4 NE 24 35 13 19 1016.4 1016.3 0.0
08/07:00am 29.1 24.1 3.5 19 12.9 NE 19 26 10 14 1016.3 1016.2 0.0
08/06:30am 27.7 23.3 4.5 22 11.8 NE 17 22 9 12 1015.9 1015.8 0.0
08/06:00am 27.8 22.3 4.0 21 12.0 ENE 22 30 12 16 1015.6 1015.5 0.0
08/05:30am 27.4 22.5 4.9 23 11.5 ENE 20 30 11 16 1015.4 1015.3 0.0
08/05:00am 26.5 22.3 5.8 26 10.7 ENE 17 22 9 12 1015.1 1014.9 0.0
08/04:30am 24.2 21.9 9.0 38 8.2 E 11 15 6 8 1014.9 1014.7 0.0
08/04:00am 25.0 22.3 8.9 36 8.7 E 13 20 7 11 1014.8 1014.6 0.0
08/03:30am 26.2 22.5 7.9 31 9.8 ESE 17 22 9 12 1014.6 1014.4 0.0
08/03:00am 26.3 22.9 7.8 31 9.9 E 15 22 8 12 1014.6 1014.4 0.0
08/02:30am 26.4 22.6 7.4 30 10.1 E 17 26 9 14 1014.5 1014.3 0.0
08/02:00am 25.1 21.3 7.5 32 9.3 E 17 24 9 13 1014.7 1014.5 0.0
08/01:30am 22.0 19.3 9.1 43 6.9 SE 13 13 7 7 1014.8 1014.6 0.0
08/01:00am 21.3 20.3 10.3 49 6.0 ESE 6 9 3 5 1014.9 1014.7 0.0
08/12:30am 22.0 21.4 10.3 47 6.4 ESE 4 7 2 4 1015.2 1015.0 0.0
08/12:00am 22.4 20.9 10.6 47 6.5 SSE 9 11 5 6 1015.4 1015.3 0.0
 
Date/Time
WST
Temp
°C
App
Temp
°C
Dew
Point
Rel
Hum
%
Delta-T
°C
Wind Press
QNH
hPa
Press
MSL
hPa
Rain
since 9 am
mm
Dir
 
Spd
km/h
Gust
km/h
Spd
kts
Gust
kts
07/11:30pm 23.8 22.6 10.2 42 7.5 SSE 7 9 4 5 1015.6 1015.5 0.0
07/11:00pm 24.3 23.3 10.4 41 7.7 SE 6 7 3 4 1015.8 1015.7 0.0
07/10:30pm 26.2 24.3 10.5 37 8.8 SSE 11 13 6 7 1015.9 1015.8 0.0
07/10:00pm 27.5 25.4 9.7 32 9.9 SSE 11 15 6 8 1016.1 1016.0 0.0
07/09:30pm 29.0 25.6 9.2 29 11.0 S 17 24 9 13 1016.0 1015.9 0.0
07/09:00pm 29.8 26.8 9.2 27 11.5 S 15 20 8 11 1015.8 1015.7 0.0
07/08:30pm 30.1 27.0 10.2 29 11.3 S 17 22 9 12 1015.6 1015.5 0.0
07/08:00pm 30.4 28.0 11.4 31 11.0 S 15 19 8 10 1015.3 1015.1 0.0
07/07:30pm 31.2 28.8 11.4 29 11.5 S 15 17 8 9 1015.0 1014.8 0.0
07/07:00pm 32.6 29.5 10.4 25 12.8 S 17 24 9 13 1014.7 1014.5 0.0
07/06:30pm 33.2 29.5 10.1 24 13.3 SSW 20 26 11 14 1014.3 1014.1 0.0
07/06:00pm 33.8 29.5 9.4 22 13.9 SSW 22 30 12 16 1014.0 1013.8 0.0
07/05:30pm 34.9 30.7 9.7 21 14.5 SW 22 28 12 15 1013.8 1013.6 0.0
07/05:00pm 36.1 31.8 10.8 21 14.9 SW 24 30 13 16 1013.6 1013.4 0.0
07/04:30pm 36.3 32.2 10.0 20 15.3 SW 22 28 12 15 1013.4 1013.2 0.0
07/04:00pm 36.5 32.9 10.7 21 15.2 WSW 20 28 11 15 1013.4 1013.2 0.0
07/03:30pm 35.5 32.7 13.1 26 13.6 WSW 20 26 11 14 1013.7 1013.5 0.0
07/03:00pm 35.6 32.6 13.8 27 13.4 WSW 22 26 12 14 1013.8 1013.6 0.0
07/02:30pm 37.5 35.9 12.9 23 15.0 W 13 20 7 11 1014.0 1013.8 0.0
07/02:00pm 38.2 34.3 3.4 11 18.5 N 13 24 7 13 1014.2 1014.0 0.0
07/01:30pm 38.0 35.4 6.2 14 17.6 NE 9 20 5 11 1014.5 1014.3 0.0
07/01:00pm 37.4 34.2 7.0 15 17.0 NNE 13 19 7 10 1014.9 1014.7 0.0
07/12:30pm 36.9 33.0 6.9 16 16.7 NE 17 24 9 13 1015.2 1015.0 0.0
07/12:00pm 36.3 32.6 7.9 17 16.0 NNE 17 30 9 16 1015.5 1015.4 0.0
07/11:30am 35.7 32.8 9.5 20 15.1 NE 15 30 8 16 1015.7 1015.6 0.0
07/11:00am 33.8 30.8 10.8 24 13.4 E 17 24 9 13 1016.0 1015.9 0.0
07/10:30am 32.5 29.2 11.5 27 12.3 ENE 20 24 11 13 1016.2 1016.1 0.0
07/10:00am 31.1 28.1 12.0 31 11.2 ENE 19 28 10 15 1016.3 1016.2 0.0
07/09:30am 29.5 26.3 12.0 34 10.2 ENE 20 28 11 15 1016.4 1016.3 0.0
07/09:00am 27.6 24.1 12.3 38 8.9 ENE 22 30 12 16 1016.3 1016.2 0.0
07/08:30am 26.3 22.5 12.5 42 8.0 ENE 24 32 13 17 1016.3 1016.2 0.0
07/08:00am 24.9 22.7 13.2 48 6.8 ENE 17 26 9 14 1016.3 1016.2 0.0
07/07:30am 23.4 21.2 13.4 53 5.8 E 17 24 9 13 1016.3 1016.2 0.0
07/07:00am 22.3 20.6 13.5 57 5.1 E 15 20 8 11 1016.1 1016.0 0.0
07/06:30am 20.7 18.6 13.6 64 4.1 ESE 17 20 9 11 1016.0 1015.9 0.0
07/06:00am 20.0 18.7 13.7 67 3.6 E 13 19 7 10 1015.9 1015.8 0.0
07/05:30am 20.1 17.0 13.3 65 3.9 E 22 32 12 17 1015.4 1015.3 0.0
07/05:00am 20.4 16.8 13.2 63 4.1 E 24 32 13 17 1015.1 1014.9 0.0
07/04:30am 20.5 16.9 13.1 62 4.2 E 24 39 13 21 1014.9 1014.7 0.0
07/04:00am 21.0 15.9 13.1 60 4.5 E 32 43 17 23 1014.8 1014.6 0.0
07/03:30am 21.6 16.8 13.0 58 4.9 E 30 43 16 23 1014.7 1014.5 0.0
07/03:00am 22.1 17.8 13.2 57 5.1 E 28 41 15 22 1014.7 1014.5 0.0
07/02:30am 22.5 19.8 13.5 56 5.2 ESE 20 33 11 18 1014.9 1014.7 0.0
07/02:00am 23.1 18.5 13.6 55 5.5 ESE 30 50 16 27 1014.8 1014.6 0.0
07/01:52am 23.5 18.5 13.5 53 5.8 E 32 50 17 27 1014.6 1014.4 0.0
07/01:30am 24.0 19.1 13.7 52 6.0 E 32 46 17 25 1014.6 1014.4 0.0
07/01:18am 24.4 20.2 13.6 51 6.3 ESE 28 46 15 25 1014.7 1014.5 0.0
07/01:00am 24.5 22.2 14.2 52 6.1 ESE 19 26 10 14 1015.1 1014.9 0.0
07/12:30am 23.8 21.8 14.9 57 5.3 ESE 19 24 10 13 1015.0 1014.8 0.0
07/12:00am 21.0 22.1 17.1 78 2.4 SE 7 9 4 5 1015.1 1014.9 0.0
 
Date/Time
WST
Temp
°C
App
Temp
°C
Dew
Point
Rel
Hum
%
Delta-T
°C
Wind Press
QNH
hPa
Press
MSL
hPa
Rain
since 9 am
mm
Dir
 
Spd
km/h
Gust
km/h
Spd
kts
Gust
kts
06/11:30pm 22.5 22.8 17.1 71 3.3 S 11 13 6 7 1015.1 1014.9 0.0
06/11:00pm 22.7 23.3 17.7 73 3.1 S 11 13 6 7 1015.2 1015.0 0.0
06/10:30pm 22.7 23.8 18.1 75 2.9 SSW 9 13 5 7 1015.3 1015.1 0.0
06/10:00pm 23.3 24.0 18.0 72 3.3 SSW 11 13 6 7 1015.2 1015.0 0.0
06/09:30pm 23.5 24.6 18.1 71 3.4 SSW 9 11 5 6 1015.3 1015.1 0.0
06/09:00pm 23.6 24.4 18.2 71 3.4 SW 11 13 6 7 1015.2 1015.0 0.0
06/08:30pm 24.0 25.1 18.1 69 3.7 SW 9 13 5 7 1015.0 1014.8 0.0
06/08:00pm 25.0 25.1 17.5 63 4.7 SW 13 19 7 10 1014.7 1014.5 0.0

Other Formats:

Comma delimited format used in spreadsheet applications
http://www.bom.gov.au/fwo/IDW60801/IDW60801.94609.axf

JavaScript Object Notation format (JSON) in row-major order
http://www.bom.gov.au/fwo/IDW60801/IDW60801.94609.json